sensor_id;sensor_type;location;lat;lon;timestamp;P1;durP1;ratioP1;P2;durP2;ratioP2
52041;SDS011;38052;45.944;13.624;2022-10-22T07:07:49;10.88;;;5.53;;
52041;SDS011;38052;45.944;13.624;2022-10-22T07:10:15;9.95;;;5.18;;
52041;SDS011;38052;45.944;13.624;2022-10-22T07:12:42;9.43;;;5.03;;
52041;SDS011;38052;45.944;13.624;2022-10-22T07:15:08;11.07;;;5.47;;
52041;SDS011;38052;45.944;13.624;2022-10-22T07:17:34;10.57;;;5.90;;
52041;SDS011;38052;45.944;13.624;2022-10-22T07:20:02;10.60;;;5.30;;
52041;SDS011;38052;45.944;13.624;2022-10-22T07:22:28;13.52;;;5.72;;
52041;SDS011;38052;45.944;13.624;2022-10-22T07:24:54;12.98;;;5.88;;
52041;SDS011;38052;45.944;13.624;2022-10-22T07:27:20;17.63;;;7.25;;
52041;SDS011;38052;45.944;13.624;2022-10-22T07:29:47;11.07;;;5.97;;
52041;SDS011;38052;45.944;13.624;2022-10-22T07:32:13;10.77;;;5.85;;
52041;SDS011;38052;45.944;13.624;2022-10-22T07:34:40;13.95;;;5.57;;
52041;SDS011;38052;45.944;13.624;2022-10-22T07:37:06;12.55;;;6.32;;
52041;SDS011;38052;45.944;13.624;2022-10-22T07:39:32;9.80;;;5.68;;
52041;SDS011;38052;45.944;13.624;2022-10-22T07:41:59;9.02;;;5.75;;
52041;SDS011;38052;45.944;13.624;2022-10-22T07:44:26;15.05;;;6.75;;
52041;SDS011;38052;45.944;13.624;2022-10-22T07:46:52;10.88;;;6.07;;
52041;SDS011;38052;45.944;13.624;2022-10-22T07:49:19;13.50;;;5.95;;
52041;SDS011;38052;45.944;13.624;2022-10-22T07:51:45;12.38;;;5.75;;
52041;SDS011;38052;45.944;13.624;2022-10-22T07:54:11;13.65;;;6.10;;
52041;SDS011;38052;45.944;13.624;2022-10-22T07:56:38;12.57;;;5.53;;
52041;SDS011;38052;45.944;13.624;2022-10-22T07:59:05;10.15;;;5.63;;
52041;SDS011;38052;45.944;13.624;2022-10-22T08:01:32;18.10;;;6.80;;
52041;SDS011;38052;45.944;13.624;2022-10-22T08:03:58;8.82;;;5.35;;
52041;SDS011;38052;45.944;13.624;2022-10-22T08:06:25;8.05;;;6.35;;
52041;SDS011;38052;45.944;13.624;2022-10-22T08:08:51;11.63;;;6.60;;
52041;SDS011;38052;45.944;13.624;2022-10-22T08:11:18;15.32;;;6.63;;
52041;SDS011;38052;45.944;13.624;2022-10-22T08:13:44;12.52;;;6.53;;
52041;SDS011;38052;45.944;13.624;2022-10-22T08:16:11;9.07;;;5.97;;
52041;SDS011;38052;45.944;13.624;2022-10-22T08:18:37;12.27;;;6.70;;
52041;SDS011;38052;45.944;13.624;2022-10-22T08:21:04;11.15;;;5.85;;
52041;SDS011;38052;45.944;13.624;2022-10-22T08:23:31;10.23;;;6.18;;
52041;SDS011;38052;45.944;13.624;2022-10-22T08:25:58;9.13;;;5.63;;
52041;SDS011;38052;45.944;13.624;2022-10-22T08:28:25;8.80;;;6.40;;
52041;SDS011;38052;45.944;13.624;2022-10-22T08:30:53;18.35;;;6.50;;
52041;SDS011;38052;45.944;13.624;2022-10-22T08:33:19;12.85;;;6.07;;
52041;SDS011;38052;45.944;13.624;2022-10-22T08:35:46;11.73;;;6.25;;
52041;SDS011;38052;45.944;13.624;2022-10-22T08:38:12;11.55;;;6.47;;
52041;SDS011;38052;45.944;13.624;2022-10-22T08:40:39;13.43;;;6.88;;
52041;SDS011;38052;45.944;13.624;2022-10-22T08:48:23;10.13;;;5.28;;
52041;SDS011;38052;45.944;13.624;2022-10-22T08:50:53;12.95;;;6.82;;
52041;SDS011;38052;45.944;13.624;2022-10-22T08:53:22;12.43;;;6.22;;
52041;SDS011;38052;45.944;13.624;2022-10-22T08:55:51;14.80;;;6.22;;
52041;SDS011;38052;45.944;13.624;2022-10-22T08:58:20;18.42;;;7.35;;
52041;SDS011;38052;45.944;13.624;2022-10-22T09:05:53;12.23;;;6.05;;
52041;SDS011;38052;45.944;13.624;2022-10-22T09:08:21;19.25;;;6.55;;
52041;SDS011;38052;45.944;13.624;2022-10-22T09:10:50;21.52;;;5.97;;
52041;SDS011;38052;45.944;13.624;2022-10-22T09:13:19;10.10;;;6.05;;
52041;SDS011;38052;45.944;13.624;2022-10-22T09:16:11;13.88;;;6.88;;
52041;SDS011;38052;45.944;13.624;2022-10-22T09:18:40;9.93;;;5.65;;
52041;SDS011;38052;45.944;13.624;2022-10-22T09:21:16;8.30;;;5.40;;
52041;SDS011;38052;45.944;13.624;2022-10-22T09:26:13;12.45;;;6.35;;
52041;SDS011;38052;45.944;13.624;2022-10-22T09:28:41;12.90;;;5.93;;
52041;SDS011;38052;45.944;13.624;2022-10-22T09:31:13;12.98;;;5.97;;
52041;SDS011;38052;45.944;13.624;2022-10-22T09:33:41;15.55;;;6.22;;
52041;SDS011;38052;45.944;13.624;2022-10-22T09:36:08;12.35;;;5.95;;
52041;SDS011;38052;45.944;13.624;2022-10-22T09:38:39;9.38;;;5.45;;
52041;SDS011;38052;45.944;13.624;2022-10-22T09:41:09;11.13;;;6.55;;
52041;SDS011;38052;45.944;13.624;2022-10-22T09:43:36;13.52;;;7.05;;
52041;SDS011;38052;45.944;13.624;2022-10-22T09:46:04;15.00;;;10.63;;
52041;SDS011;38052;45.944;13.624;2022-10-22T09:48:35;13.07;;;8.18;;
52041;SDS011;38052;45.944;13.624;2022-10-22T09:53:46;11.63;;;7.18;;
52041;SDS011;38052;45.944;13.624;2022-10-22T09:56:17;15.60;;;7.32;;
52041;SDS011;38052;45.944;13.624;2022-10-22T09:58:48;14.07;;;7.70;;
52041;SDS011;38052;45.944;13.624;2022-10-22T10:01:21;22.05;;;8.00;;
52041;SDS011;38052;45.944;13.624;2022-10-22T10:03:48;13.05;;;7.00;;
52041;SDS011;38052;45.944;13.624;2022-10-22T10:06:20;16.92;;;7.22;;
52041;SDS011;38052;45.944;13.624;2022-10-22T10:08:47;20.02;;;8.27;;
52041;SDS011;38052;45.944;13.624;2022-10-22T10:11:18;13.32;;;6.97;;
52041;SDS011;38052;45.944;13.624;2022-10-22T10:13:51;19.58;;;6.88;;
52041;SDS011;38052;45.944;13.624;2022-10-22T10:27:08;12.13;;;7.70;;
52041;SDS011;38052;45.944;13.624;2022-10-22T10:29:49;11.52;;;6.70;;
52041;SDS011;38052;45.944;13.624;2022-10-22T10:37:36;13.40;;;8.25;;
52041;SDS011;38052;45.944;13.624;2022-10-22T10:40:10;13.15;;;7.75;;
52041;SDS011;38052;45.944;13.624;2022-10-22T10:42:42;14.73;;;8.40;;
52041;SDS011;38052;45.944;13.624;2022-10-22T10:50:42;18.10;;;9.73;;
52041;SDS011;38052;45.944;13.624;2022-10-22T10:56:03;19.73;;;9.27;;
52041;SDS011;38052;45.944;13.624;2022-10-22T10:58:45;17.25;;;9.15;;
52041;SDS011;38052;45.944;13.624;2022-10-22T11:06:13;14.68;;;7.93;;
52041;SDS011;38052;45.944;13.624;2022-10-22T11:08:44;21.83;;;9.63;;
52041;SDS011;38052;45.944;13.624;2022-10-22T11:11:15;14.25;;;7.57;;
52041;SDS011;38052;45.944;13.624;2022-10-22T11:13:48;15.68;;;9.13;;
52041;SDS011;38052;45.944;13.624;2022-10-22T11:26:26;20.40;;;7.85;;
52041;SDS011;38052;45.944;13.624;2022-10-22T11:28:54;15.98;;;5.97;;
52041;SDS011;38052;45.944;13.624;2022-10-22T11:31:23;18.00;;;6.75;;
52041;SDS011;38052;45.944;13.624;2022-10-22T11:33:54;18.27;;;6.93;;
52041;SDS011;38052;45.944;13.624;2022-10-22T11:36:22;12.73;;;6.50;;
52041;SDS011;38052;45.944;13.624;2022-10-22T11:38:50;13.10;;;6.88;;
52041;SDS011;38052;45.944;13.624;2022-10-22T11:41:18;19.83;;;6.80;;
52041;SDS011;38052;45.944;13.624;2022-10-22T11:43:52;16.85;;;6.90;;
52041;SDS011;38052;45.944;13.624;2022-10-22T11:49:00;14.38;;;7.15;;
52041;SDS011;38052;45.944;13.624;2022-10-22T11:51:34;12.73;;;7.03;;
52041;SDS011;38052;45.944;13.624;2022-10-22T11:54:02;14.95;;;7.30;;
52041;SDS011;38052;45.944;13.624;2022-10-22T11:56:47;21.38;;;6.40;;
52041;SDS011;38052;45.944;13.624;2022-10-22T12:02:19;22.13;;;6.93;;
52041;SDS011;38052;45.944;13.624;2022-10-22T12:04:48;17.30;;;6.80;;
52041;SDS011;38052;45.944;13.624;2022-10-22T12:08:17;12.00;;;6.43;;
52041;SDS011;38052;45.944;13.624;2022-10-22T12:10:16;21.30;;;7.85;;
52041;SDS011;38052;45.944;13.624;2022-10-22T12:12:44;19.90;;;6.03;;
52041;SDS011;38052;45.944;13.624;2022-10-22T12:15:25;11.57;;;6.28;;
52041;SDS011;38052;45.944;13.624;2022-10-22T12:17:57;11.13;;;6.82;;
52041;SDS011;38052;45.944;13.624;2022-10-22T12:20:25;23.90;;;7.07;;
52041;SDS011;38052;45.944;13.624;2022-10-22T12:22:53;11.40;;;6.32;;
52041;SDS011;38052;45.944;13.624;2022-10-22T12:25:23;17.67;;;6.57;;
52041;SDS011;38052;45.944;13.624;2022-10-22T12:27:51;11.23;;;6.75;;
52041;SDS011;38052;45.944;13.624;2022-10-22T12:32:50;21.52;;;7.25;;
52041;SDS011;38052;45.944;13.624;2022-10-22T12:35:19;19.30;;;7.28;;
52041;SDS011;38052;45.944;13.624;2022-10-22T12:37:49;24.83;;;8.38;;
52041;SDS011;38052;45.944;13.624;2022-10-22T12:40:20;13.63;;;7.90;;
52041;SDS011;38052;45.944;13.624;2022-10-22T12:42:57;15.15;;;6.47;;
52041;SDS011;38052;45.944;13.624;2022-10-22T12:45:30;21.40;;;7.60;;
52041;SDS011;38052;45.944;13.624;2022-10-22T12:47:58;19.15;;;8.05;;
52041;SDS011;38052;45.944;13.624;2022-10-22T12:50:44;18.90;;;8.57;;
52041;SDS011;38052;45.944;13.624;2022-10-22T12:53:20;16.73;;;7.57;;
52041;SDS011;38052;45.944;13.624;2022-10-22T12:55:49;15.68;;;7.90;;
52041;SDS011;38052;45.944;13.624;2022-10-22T12:58:17;18.42;;;7.93;;
52041;SDS011;38052;45.944;13.624;2022-10-22T13:00:44;19.45;;;8.95;;
52041;SDS011;38052;45.944;13.624;2022-10-22T13:03:10;27.35;;;8.23;;
52041;SDS011;38052;45.944;13.624;2022-10-22T13:05:42;21.73;;;8.30;;
52041;SDS011;38052;45.944;13.624;2022-10-22T13:08:09;15.18;;;8.20;;
52041;SDS011;38052;45.944;13.624;2022-10-22T13:10:37;18.65;;;8.35;;
52041;SDS011;38052;45.944;13.624;2022-10-22T13:13:04;19.58;;;8.13;;
52041;SDS011;38052;45.944;13.624;2022-10-22T13:20:54;21.08;;;8.02;;
52041;SDS011;38052;45.944;13.624;2022-10-22T13:23:22;19.37;;;8.23;;
52041;SDS011;38052;45.944;13.624;2022-10-22T13:26:21;18.55;;;9.57;;
52041;SDS011;38052;45.944;13.624;2022-10-22T13:28:41;19.10;;;8.45;;
52041;SDS011;38052;45.944;13.624;2022-10-22T13:31:15;23.13;;;8.25;;
52041;SDS011;38052;45.944;13.624;2022-10-22T13:33:42;15.48;;;7.60;;
52041;SDS011;38052;45.944;13.624;2022-10-22T13:36:15;27.75;;;7.97;;
52041;SDS011;38052;45.944;13.624;2022-10-22T13:38:42;24.52;;;9.60;;
52041;SDS011;38052;45.944;13.624;2022-10-22T13:41:25;24.25;;;7.80;;
52041;SDS011;38052;45.944;13.624;2022-10-22T13:43:51;22.95;;;8.40;;
52041;SDS011;38052;45.944;13.624;2022-10-22T13:46:18;21.58;;;9.88;;
52041;SDS011;38052;45.944;13.624;2022-10-22T13:48:45;26.92;;;10.52;;
52041;SDS011;38052;45.944;13.624;2022-10-22T13:51:13;23.85;;;10.52;;
52041;SDS011;38052;45.944;13.624;2022-10-22T13:53:40;19.98;;;11.43;;
52041;SDS011;38052;45.944;13.624;2022-10-22T13:56:11;25.67;;;11.65;;
52041;SDS011;38052;45.944;13.624;2022-10-22T13:58:38;22.90;;;10.13;;
52041;SDS011;38052;45.944;13.624;2022-10-22T14:01:04;18.30;;;9.70;;
52041;SDS011;38052;45.944;13.624;2022-10-22T14:03:33;26.52;;;12.60;;
52041;SDS011;38052;45.944;13.624;2022-10-22T14:06:01;23.90;;;11.38;;
52041;SDS011;38052;45.944;13.624;2022-10-22T14:08:27;22.35;;;11.02;;
52041;SDS011;38052;45.944;13.624;2022-10-22T14:10:53;28.80;;;12.00;;
52041;SDS011;38052;45.944;13.624;2022-10-22T14:13:20;23.48;;;11.63;;
52041;SDS011;38052;45.944;13.624;2022-10-22T14:15:47;30.52;;;11.82;;
52041;SDS011;38052;45.944;13.624;2022-10-22T14:18:19;28.55;;;12.18;;
52041;SDS011;38052;45.944;13.624;2022-10-22T14:20:49;21.67;;;11.55;;
52041;SDS011;38052;45.944;13.624;2022-10-22T14:23:20;28.15;;;11.68;;
52041;SDS011;38052;45.944;13.624;2022-10-22T14:25:47;31.17;;;12.32;;
52041;SDS011;38052;45.944;13.624;2022-10-22T14:28:15;24.02;;;11.35;;
52041;SDS011;38052;45.944;13.624;2022-10-22T14:30:41;26.73;;;10.73;;
52041;SDS011;38052;45.944;13.624;2022-10-22T14:33:18;24.65;;;11.85;;
52041;SDS011;38052;45.944;13.624;2022-10-22T14:35:46;29.08;;;11.98;;
52041;SDS011;38052;45.944;13.624;2022-10-22T14:38:12;19.98;;;11.63;;
52041;SDS011;38052;45.944;13.624;2022-10-22T14:40:39;21.70;;;10.88;;
52041;SDS011;38052;45.944;13.624;2022-10-22T14:43:09;32.63;;;13.18;;
52041;SDS011;38052;45.944;13.624;2022-10-22T14:45:36;27.85;;;11.95;;
52041;SDS011;38052;45.944;13.624;2022-10-22T14:48:02;27.35;;;11.40;;
52041;SDS011;38052;45.944;13.624;2022-10-22T14:50:28;20.08;;;11.50;;
52041;SDS011;38052;45.944;13.624;2022-10-22T14:52:55;30.08;;;12.50;;
52041;SDS011;38052;45.944;13.624;2022-10-22T14:55:23;24.30;;;11.75;;
52041;SDS011;38052;45.944;13.624;2022-10-22T14:57:51;23.13;;;13.05;;
52041;SDS011;38052;45.944;13.624;2022-10-22T15:00:18;33.20;;;12.50;;
52041;SDS011;38052;45.944;13.624;2022-10-22T15:02:45;33.40;;;13.00;;
52041;SDS011;38052;45.944;13.624;2022-10-22T15:05:12;29.15;;;13.48;;
52041;SDS011;38052;45.944;13.624;2022-10-22T15:07:38;25.42;;;13.80;;
52041;SDS011;38052;45.944;13.624;2022-10-22T15:10:05;24.00;;;13.02;;
52041;SDS011;38052;45.944;13.624;2022-10-22T15:12:32;29.25;;;12.02;;
52041;SDS011;38052;45.944;13.624;2022-10-22T15:14:59;23.75;;;12.18;;
52041;SDS011;38052;45.944;13.624;2022-10-22T15:17:25;30.33;;;12.13;;
52041;SDS011;38052;45.944;13.624;2022-10-22T15:19:52;24.90;;;12.52;;
52041;SDS011;38052;45.944;13.624;2022-10-22T15:22:20;23.60;;;11.65;;
52041;SDS011;38052;45.944;13.624;2022-10-22T15:24:46;30.52;;;12.32;;
52041;SDS011;38052;45.944;13.624;2022-10-22T15:27:13;25.17;;;12.82;;
52041;SDS011;38052;45.944;13.624;2022-10-22T15:29:40;30.90;;;12.93;;
52041;SDS011;38052;45.944;13.624;2022-10-22T15:32:07;26.60;;;12.48;;
52041;SDS011;38052;45.944;13.624;2022-10-22T15:34:38;24.70;;;10.33;;
52041;SDS011;38052;45.944;13.624;2022-10-22T15:37:05;23.48;;;10.07;;
52041;SDS011;38052;45.944;13.624;2022-10-22T15:39:32;19.15;;;11.48;;
52041;SDS011;38052;45.944;13.624;2022-10-22T15:41:58;20.98;;;12.07;;
52041;SDS011;38052;45.944;13.624;2022-10-22T15:44:25;21.75;;;10.50;;
52041;SDS011;38052;45.944;13.624;2022-10-22T15:46:52;23.15;;;11.32;;
52041;SDS011;38052;45.944;13.624;2022-10-22T15:49:19;29.85;;;12.00;;
52041;SDS011;38052;45.944;13.624;2022-10-22T15:51:45;22.83;;;11.95;;
52041;SDS011;38052;45.944;13.624;2022-10-22T15:54:13;26.30;;;11.35;;
52041;SDS011;38052;45.944;13.624;2022-10-22T15:56:40;30.63;;;13.25;;
52041;SDS011;38052;45.944;13.624;2022-10-22T15:59:09;26.17;;;12.13;;
52041;SDS011;38052;45.944;13.624;2022-10-22T16:01:35;25.60;;;11.18;;
52041;SDS011;38052;45.944;13.624;2022-10-22T16:04:02;27.42;;;11.27;;
52041;SDS011;38052;45.944;13.624;2022-10-22T16:06:29;22.23;;;10.98;;
52041;SDS011;38052;45.944;13.624;2022-10-22T16:08:56;21.83;;;11.95;;
52041;SDS011;38052;45.944;13.624;2022-10-22T16:11:23;17.45;;;11.07;;
52041;SDS011;38052;45.944;13.624;2022-10-22T16:13:53;21.48;;;10.88;;
52041;SDS011;38052;45.944;13.624;2022-10-22T16:16:20;25.95;;;9.82;;
52041;SDS011;38052;45.944;13.624;2022-10-22T16:18:47;16.85;;;10.50;;
52041;SDS011;38052;45.944;13.624;2022-10-22T16:21:13;21.50;;;9.05;;
52041;SDS011;38052;45.944;13.624;2022-10-22T16:23:40;20.95;;;10.65;;
52041;SDS011;38052;45.944;13.624;2022-10-22T16:26:07;17.80;;;8.75;;
52041;SDS011;38052;45.944;13.624;2022-10-22T16:28:34;21.30;;;8.68;;
52041;SDS011;38052;45.944;13.624;2022-10-22T16:31:01;25.48;;;10.98;;
52041;SDS011;38052;45.944;13.624;2022-10-22T16:33:27;17.75;;;9.45;;
52041;SDS011;38052;45.944;13.624;2022-10-22T16:35:53;16.20;;;8.38;;
52041;SDS011;38052;45.944;13.624;2022-10-22T16:38:20;17.13;;;10.73;;
52041;SDS011;38052;45.944;13.624;2022-10-22T16:40:46;11.55;;;6.57;;
52041;SDS011;38052;45.944;13.624;2022-10-22T16:43:13;13.60;;;5.90;;
52041;SDS011;38052;45.944;13.624;2022-10-22T16:45:45;11.52;;;4.82;;
52041;SDS011;38052;45.944;13.624;2022-10-22T16:48:11;17.52;;;8.52;;
52041;SDS011;38052;45.944;13.624;2022-10-22T16:50:38;12.65;;;5.88;;
52041;SDS011;38052;45.944;13.624;2022-10-22T16:53:04;10.98;;;5.40;;
52041;SDS011;38052;45.944;13.624;2022-10-22T16:55:34;10.10;;;4.55;;
52041;SDS011;38052;45.944;13.624;2022-10-22T16:58:00;7.93;;;4.75;;
52041;SDS011;38052;45.944;13.624;2022-10-22T17:00:27;13.02;;;6.07;;
52041;SDS011;38052;45.944;13.624;2022-10-22T17:02:55;18.15;;;7.10;;
52041;SDS011;38052;45.944;13.624;2022-10-22T17:05:21;11.43;;;5.82;;
52041;SDS011;38052;45.944;13.624;2022-10-22T17:07:48;17.65;;;9.15;;
52041;SDS011;38052;45.944;13.624;2022-10-22T17:10:15;13.55;;;6.10;;
52041;SDS011;38052;45.944;13.624;2022-10-22T17:12:43;13.93;;;5.55;;
52041;SDS011;38052;45.944;13.624;2022-10-22T17:15:10;17.50;;;8.75;;
52041;SDS011;38052;45.944;13.624;2022-10-22T17:17:36;12.90;;;5.65;;
52041;SDS011;38052;45.944;13.624;2022-10-22T17:20:03;13.00;;;6.68;;
52041;SDS011;38052;45.944;13.624;2022-10-22T17:22:30;9.93;;;6.05;;
52041;SDS011;38052;45.944;13.624;2022-10-22T17:27:42;13.07;;;4.32;;
52041;SDS011;38052;45.944;13.624;2022-10-22T17:30:10;14.55;;;4.63;;
52041;SDS011;38052;45.944;13.624;2022-10-22T17:32:37;6.40;;;3.05;;
52041;SDS011;38052;45.944;13.624;2022-10-22T17:35:04;9.80;;;4.03;;
52041;SDS011;38052;45.944;13.624;2022-10-22T17:37:31;7.90;;;3.45;;
52041;SDS011;38052;45.944;13.624;2022-10-22T17:39:57;10.30;;;4.30;;
52041;SDS011;38052;45.944;13.624;2022-10-22T17:42:25;13.85;;;5.78;;
52041;SDS011;38052;45.944;13.624;2022-10-22T17:44:51;9.77;;;5.82;;
52041;SDS011;38052;45.944;13.624;2022-10-22T17:47:18;6.55;;;3.15;;
52041;SDS011;38052;45.944;13.624;2022-10-22T17:49:44;6.95;;;3.05;;
52041;SDS011;38052;45.944;13.624;2022-10-22T17:52:11;5.40;;;2.67;;
52041;SDS011;38052;45.944;13.624;2022-10-22T17:54:37;8.80;;;4.50;;
52041;SDS011;38052;45.944;13.624;2022-10-22T17:57:04;11.27;;;5.15;;
52041;SDS011;38052;45.944;13.624;2022-10-22T17:59:31;6.75;;;3.65;;
52041;SDS011;38052;45.944;13.624;2022-10-22T18:01:57;8.57;;;3.78;;
52041;SDS011;38052;45.944;13.624;2022-10-22T18:04:26;9.07;;;4.07;;
52041;SDS011;38052;45.944;13.624;2022-10-22T18:06:53;7.43;;;3.47;;
52041;SDS011;38052;45.944;13.624;2022-10-22T18:09:20;7.07;;;3.50;;
52041;SDS011;38052;45.944;13.624;2022-10-22T18:11:50;7.13;;;4.35;;
52041;SDS011;38052;45.944;13.624;2022-10-22T18:14:17;11.30;;;4.00;;
52041;SDS011;38052;45.944;13.624;2022-10-22T18:16:44;6.90;;;3.60;;
52041;SDS011;38052;45.944;13.624;2022-10-22T18:19:11;12.23;;;3.15;;
52041;SDS011;38052;45.944;13.624;2022-10-22T18:21:39;9.80;;;3.53;;
52041;SDS011;38052;45.944;13.624;2022-10-22T18:24:06;5.63;;;2.72;;
52041;SDS011;38052;45.944;13.624;2022-10-22T18:26:32;9.10;;;3.63;;
52041;SDS011;38052;45.944;13.624;2022-10-22T18:28:59;15.25;;;3.88;;
52041;SDS011;38052;45.944;13.624;2022-10-22T18:31:26;11.45;;;4.68;;
52041;SDS011;38052;45.944;13.624;2022-10-22T18:33:55;13.02;;;7.13;;
52041;SDS011;38052;45.944;13.624;2022-10-22T18:36:22;11.38;;;4.65;;
52041;SDS011;38052;45.944;13.624;2022-10-22T18:38:49;9.20;;;4.07;;
52041;SDS011;38052;45.944;13.624;2022-10-22T18:41:15;9.43;;;3.90;;
52041;SDS011;38052;45.944;13.624;2022-10-22T18:43:42;8.90;;;3.30;;
52041;SDS011;38052;45.944;13.624;2022-10-22T18:46:08;6.75;;;3.25;;
52041;SDS011;38052;45.944;13.624;2022-10-22T18:48:35;6.38;;;2.72;;
52041;SDS011;38052;45.944;13.624;2022-10-22T18:51:03;8.43;;;3.00;;
52041;SDS011;38052;45.944;13.624;2022-10-22T18:53:29;7.47;;;3.03;;
52041;SDS011;38052;45.944;13.624;2022-10-22T18:55:56;4.93;;;2.97;;
52041;SDS011;38052;45.944;13.624;2022-10-22T18:58:22;7.10;;;3.58;;
52041;SDS011;38052;45.944;13.624;2022-10-22T19:00:49;6.10;;;3.20;;
52041;SDS011;38052;45.944;13.624;2022-10-22T19:03:16;6.40;;;2.10;;
52041;SDS011;38052;45.944;13.624;2022-10-22T19:05:49;2.50;;;1.10;;
52041;SDS011;38052;45.944;13.624;2022-10-22T19:08:15;4.47;;;1.15;;
52041;SDS011;38052;45.944;13.624;2022-10-22T19:10:45;3.25;;;1.05;;
52041;SDS011;38052;45.944;13.624;2022-10-22T19:13:12;4.80;;;0.93;;
52041;SDS011;38052;45.944;13.624;2022-10-22T19:15:38;6.32;;;1.65;;
52041;SDS011;38052;45.944;13.624;2022-10-22T19:18:05;6.13;;;1.35;;
52041;SDS011;38052;45.944;13.624;2022-10-22T19:20:32;4.75;;;1.48;;
52041;SDS011;38052;45.944;13.624;2022-10-22T19:22:59;4.38;;;0.85;;
52041;SDS011;38052;45.944;13.624;2022-10-22T19:25:26;2.10;;;1.02;;
52041;SDS011;38052;45.944;13.624;2022-10-22T19:27:52;1.90;;;0.80;;
52041;SDS011;38052;45.944;13.624;2022-10-22T19:30:19;1.70;;;0.88;;
52041;SDS011;38052;45.944;13.624;2022-10-22T19:32:47;1.98;;;0.68;;
52041;SDS011;38052;45.944;13.624;2022-10-22T19:35:13;2.53;;;0.80;;
52041;SDS011;38052;45.944;13.624;2022-10-22T19:37:41;2.88;;;0.90;;
52041;SDS011;38052;45.944;13.624;2022-10-22T19:40:07;3.60;;;0.77;;
52041;SDS011;38052;45.944;13.624;2022-10-22T19:42:34;4.50;;;1.17;;
52041;SDS011;38052;45.944;13.624;2022-10-22T19:45:00;10.18;;;1.33;;
52041;SDS011;38052;45.944;13.624;2022-10-22T19:47:27;2.55;;;1.00;;
52041;SDS011;38052;45.944;13.624;2022-10-22T19:49:53;4.15;;;1.25;;
52041;SDS011;38052;45.944;13.624;2022-10-22T19:52:20;3.33;;;0.82;;
52041;SDS011;38052;45.944;13.624;2022-10-22T19:54:46;1.88;;;0.60;;
52041;SDS011;38052;45.944;13.624;2022-10-22T19:57:13;3.97;;;0.90;;
52041;SDS011;38052;45.944;13.624;2022-10-22T19:59:40;3.83;;;1.23;;
52041;SDS011;38052;45.944;13.624;2022-10-22T20:02:09;3.20;;;0.90;;
52041;SDS011;38052;45.944;13.624;2022-10-22T20:04:37;6.03;;;1.45;;
52041;SDS011;38052;45.944;13.624;2022-10-22T20:07:04;6.10;;;1.10;;
52041;SDS011;38052;45.944;13.624;2022-10-22T20:09:30;2.85;;;0.80;;
52041;SDS011;38052;45.944;13.624;2022-10-22T20:11:56;4.38;;;1.88;;
52041;SDS011;38052;45.944;13.624;2022-10-22T20:14:23;3.38;;;2.00;;
52041;SDS011;38052;45.944;13.624;2022-10-22T20:16:50;5.05;;;0.95;;
52041;SDS011;38052;45.944;13.624;2022-10-22T20:19:16;2.88;;;1.13;;
52041;SDS011;38052;45.944;13.624;2022-10-22T20:21:43;5.85;;;1.13;;
52041;SDS011;38052;45.944;13.624;2022-10-22T20:24:10;1.40;;;0.63;;
52041;SDS011;38052;45.944;13.624;2022-10-22T20:26:36;3.30;;;0.75;;
52041;SDS011;38052;45.944;13.624;2022-10-22T20:29:03;4.45;;;0.75;;
52041;SDS011;38052;45.944;13.624;2022-10-22T20:31:30;4.22;;;0.95;;
52041;SDS011;38052;45.944;13.624;2022-10-22T20:33:57;5.88;;;1.20;;
52041;SDS011;38052;45.944;13.624;2022-10-22T20:36:24;3.47;;;0.73;;
52041;SDS011;38052;45.944;13.624;2022-10-22T20:38:51;3.40;;;1.05;;
52041;SDS011;38052;45.944;13.624;2022-10-22T20:41:19;1.73;;;0.90;;
52041;SDS011;38052;45.944;13.624;2022-10-22T20:43:45;5.28;;;0.93;;
52041;SDS011;38052;45.944;13.624;2022-10-22T20:46:15;4.45;;;1.27;;
52041;SDS011;38052;45.944;13.624;2022-10-22T20:48:42;2.83;;;1.08;;
52041;SDS011;38052;45.944;13.624;2022-10-22T20:51:08;2.63;;;0.93;;
52041;SDS011;38052;45.944;13.624;2022-10-22T20:53:35;1.70;;;0.77;;
52041;SDS011;38052;45.944;13.624;2022-10-22T20:56:02;4.65;;;1.23;;
52041;SDS011;38052;45.944;13.624;2022-10-22T20:58:28;4.30;;;1.10;;
52041;SDS011;38052;45.944;13.624;2022-10-22T21:00:55;1.48;;;0.77;;
52041;SDS011;38052;45.944;13.624;2022-10-22T21:03:22;1.83;;;0.65;;
52041;SDS011;38052;45.944;13.624;2022-10-22T21:05:49;2.40;;;0.60;;
52041;SDS011;38052;45.944;13.624;2022-10-22T21:08:15;4.03;;;0.63;;
52041;SDS011;38052;45.944;13.624;2022-10-22T21:10:45;4.10;;;1.20;;
52041;SDS011;38052;45.944;13.624;2022-10-22T21:13:13;1.10;;;0.40;;
52041;SDS011;38052;45.944;13.624;2022-10-22T21:15:39;6.15;;;1.02;;
52041;SDS011;38052;45.944;13.624;2022-10-22T21:18:06;3.25;;;0.70;;
52041;SDS011;38052;45.944;13.624;2022-10-22T21:20:32;3.63;;;0.55;;
52041;SDS011;38052;45.944;13.624;2022-10-22T21:22:58;2.20;;;0.68;;
52041;SDS011;38052;45.944;13.624;2022-10-22T21:25:25;5.00;;;0.93;;
52041;SDS011;38052;45.944;13.624;2022-10-22T21:27:51;3.83;;;0.85;;
52041;SDS011;38052;45.944;13.624;2022-10-22T21:30:18;4.32;;;0.90;;
52041;SDS011;38052;45.944;13.624;2022-10-22T21:32:44;3.72;;;1.15;;
52041;SDS011;38052;45.944;13.624;2022-10-22T21:35:11;2.08;;;1.00;;
52041;SDS011;38052;45.944;13.624;2022-10-22T21:37:38;3.03;;;0.73;;
52041;SDS011;38052;45.944;13.624;2022-10-22T21:40:04;2.83;;;0.40;;
52041;SDS011;38052;45.944;13.624;2022-10-22T21:42:31;0.90;;;0.50;;
52041;SDS011;38052;45.944;13.624;2022-10-22T21:44:57;3.92;;;0.60;;
52041;SDS011;38052;45.944;13.624;2022-10-22T21:47:24;3.50;;;0.43;;
52041;SDS011;38052;45.944;13.624;2022-10-22T21:49:51;2.00;;;0.70;;
52041;SDS011;38052;45.944;13.624;2022-10-22T21:52:17;2.97;;;1.00;;
52041;SDS011;38052;45.944;13.624;2022-10-22T21:54:43;4.05;;;0.55;;
52041;SDS011;38052;45.944;13.624;2022-10-22T21:57:09;3.42;;;0.50;;
52041;SDS011;38052;45.944;13.624;2022-10-22T21:59:36;2.28;;;0.50;;
52041;SDS011;38052;45.944;13.624;2022-10-22T22:02:03;3.75;;;0.60;;
52041;SDS011;38052;45.944;13.624;2022-10-22T22:04:29;4.28;;;0.50;;
52041;SDS011;38052;45.944;13.624;2022-10-22T22:06:55;3.58;;;1.00;;
52041;SDS011;38052;45.944;13.624;2022-10-22T22:09:22;5.60;;;0.93;;
52041;SDS011;38052;45.944;13.624;2022-10-22T22:11:48;4.35;;;0.70;;
52041;SDS011;38052;45.944;13.624;2022-10-22T22:14:15;2.00;;;0.40;;
52041;SDS011;38052;45.944;13.624;2022-10-22T22:16:42;5.78;;;0.60;;
52041;SDS011;38052;45.944;13.624;2022-10-22T22:19:08;1.85;;;0.40;;
52041;SDS011;38052;45.944;13.624;2022-10-22T22:21:35;0.73;;;0.40;;
52041;SDS011;38052;45.944;13.624;2022-10-22T22:24:03;4.50;;;0.63;;
52041;SDS011;38052;45.944;13.624;2022-10-22T22:26:30;4.13;;;0.55;;
52041;SDS011;38052;45.944;13.624;2022-10-22T22:28:57;2.30;;;0.40;;
52041;SDS011;38052;45.944;13.624;2022-10-22T22:31:25;5.78;;;0.40;;
52041;SDS011;38052;45.944;13.624;2022-10-22T22:34:02;2.38;;;0.38;;
52041;SDS011;38052;45.944;13.624;2022-10-22T22:36:33;1.65;;;1.02;;
52041;SDS011;38052;45.944;13.624;2022-10-22T22:41:26;2.13;;;0.50;;
52041;SDS011;38052;45.944;13.624;2022-10-22T22:43:52;5.32;;;0.60;;
52041;SDS011;38052;45.944;13.624;2022-10-22T22:46:19;3.90;;;0.50;;
52041;SDS011;38052;45.944;13.624;2022-10-22T22:48:48;2.40;;;0.45;;